Time;durP1;ratioP1;P1;durP2;ratioP2;P2;SDS_P1;SDS_P2;PMS_P1;PMS_P2;Temp;Humidity;BMP_temperature;BMP_pressure;BME280_temperature;BME280_humidity;BME280_pressure;Samples;Min_cycle;Max_cycle;Signal;HPM_P1;HPM_P2
2023/12/09 00:02:40;;;;;;;131.13;34.50;;;6.80;84.60;;;;;;5012418;28;20041;-87
2023/12/09 00:05:25;;;;;;;105.03;33.40;;;6.80;84.60;;;;;;5012958;28;20080;-87
2023/12/09 00:08:09;;;;;;;115.10;32.47;;;6.80;84.60;;;;;;5012037;28;20084;-87
2023/12/09 00:10:53;;;;;;;119.03;32.22;;;6.80;84.60;;;;;;5012232;28;20096;-87
2023/12/09 00:13:37;;;;;;;103.07;30.08;;;6.80;84.50;;;;;;4997999;28;20445;-86
2023/12/09 00:16:22;;;;;;;103.03;34.25;;;6.80;84.60;;;;;;5011619;28;20498;-86
2023/12/09 00:19:07;;;;;;;107.80;32.58;;;6.80;84.60;;;;;;5011804;28;20045;-86
2023/12/09 00:21:51;;;;;;;99.10;32.00;;;6.80;84.50;;;;;;4991741;28;20073;-87
2023/12/09 00:24:36;;;;;;;97.65;32.53;;;6.90;84.50;;;;;;4978160;28;20133;-86
2023/12/09 00:27:20;;;;;;;92.13;31.15;;;6.90;84.50;;;;;;5012678;28;20116;-88
2023/12/09 00:30:06;;;;;;;101.80;31.35;;;6.90;84.50;;;;;;5011053;28;20072;-87
2023/12/09 00:32:50;;;;;;;94.18;31.20;;;6.90;84.60;;;;;;5011680;28;20057;-87
2023/12/09 00:35:34;;;;;;;94.70;31.60;;;6.90;84.40;;;;;;5011539;28;20045;-87
2023/12/09 00:38:18;;;;;;;103.97;31.00;;;6.90;84.50;;;;;;5012227;28;20084;-87
2023/12/09 00:41:03;;;;;;;100.88;30.17;;;6.90;84.50;;;;;;5010821;28;20084;-87
2023/12/09 00:43:47;;;;;;;90.10;28.13;;;6.90;84.50;;;;;;5012006;28;20045;-87
2023/12/09 00:46:31;;;;;;;93.65;29.08;;;6.90;84.50;;;;;;5011183;28;20587;-87
2023/12/09 00:49:15;;;;;;;94.13;28.92;;;6.90;84.40;;;;;;5012168;28;20493;-87
2023/12/09 00:51:59;;;;;;;82.15;27.50;;;6.90;84.40;;;;;;5011651;28;20589;-87
2023/12/09 00:54:43;;;;;;;104.30;29.92;;;6.90;84.30;;;;;;5011823;28;20175;-87
2023/12/09 00:57:27;;;;;;;85.20;28.63;;;6.90;84.40;;;;;;5008631;28;20045;-88
2023/12/09 01:00:13;;;;;;;83.65;26.88;;;7.00;84.30;;;;;;4989240;28;20061;-87
2023/12/09 01:02:57;;;;;;;93.50;29.50;;;7.00;84.30;;;;;;4996788;28;20088;-88
2023/12/09 01:05:41;;;;;;;88.32;29.30;;;7.00;84.30;;;;;;5010927;28;20509;-87
2023/12/09 01:08:25;;;;;;;92.78;28.80;;;7.00;84.30;;;;;;5010929;28;20037;-87
2023/12/09 01:11:10;;;;;;;85.03;29.85;;;7.00;84.30;;;;;;5011137;28;20100;-88
2023/12/09 01:13:54;;;;;;;94.85;30.23;;;7.00;84.30;;;;;;5010291;28;20096;-87
2023/12/09 01:16:38;;;;;;;96.45;30.15;;;7.00;84.30;;;;;;5011769;28;20049;-87
2023/12/09 01:19:22;;;;;;;98.45;27.77;;;6.90;84.30;;;;;;4996775;28;20069;-87
2023/12/09 01:22:06;;;;;;;86.97;29.65;;;6.90;84.20;;;;;;5011285;28;20033;-87
2023/12/09 01:24:50;;;;;;;87.28;28.13;;;6.90;84.30;;;;;;4996128;28;20068;-87
2023/12/09 01:27:35;;;;;;;99.10;28.52;;;6.90;84.20;;;;;;5011718;28;20040;-88
2023/12/09 01:30:19;;;;;;;75.57;28.23;;;7.00;84.20;;;;;;4999981;28;20153;-87
2023/12/09 01:33:03;;;;;;;88.07;27.55;;;7.00;84.20;;;;;;5010803;28;20060;-87
2023/12/09 01:35:47;;;;;;;69.13;25.67;;;7.00;84.10;;;;;;5010708;28;20410;-86
2023/12/09 01:38:31;;;;;;;72.35;26.25;;;7.00;84.10;;;;;;5011440;28;20084;-87
2023/12/09 01:41:15;;;;;;;72.57;25.65;;;7.00;84.10;;;;;;5010504;28;20088;-87
2023/12/09 01:43:59;;;;;;;72.78;24.98;;;7.10;84.00;;;;;;4999860;28;20125;-87
2023/12/09 01:46:44;;;;;;;68.13;24.27;;;7.10;84.00;;;;;;5010341;28;20057;-87
2023/12/09 01:49:28;;;;;;;77.25;25.58;;;7.10;83.90;;;;;;5011536;28;20092;-86
2023/12/09 01:52:13;;;;;;;76.07;26.70;;;7.10;83.90;;;;;;5009979;28;20064;-87
2023/12/09 01:54:59;;;;;;;76.72;24.77;;;7.10;83.90;;;;;;5010799;28;20504;-87
2023/12/09 01:57:43;;;;;;;71.03;24.70;;;7.10;83.90;;;;;;5005933;28;20084;-88
2023/12/09 02:00:27;;;;;;;63.13;26.00;;;7.10;83.90;;;;;;5004387;28;20065;-87
2023/12/09 02:03:11;;;;;;;59.55;22.58;;;7.10;83.80;;;;;;5010932;28;20092;-87
2023/12/09 02:05:55;;;;;;;64.78;22.80;;;7.10;83.70;;;;;;5009680;28;20037;-87
2023/12/09 02:08:39;;;;;;;61.10;24.60;;;7.10;83.70;;;;;;4996450;28;20064;-87
2023/12/09 02:11:38;;;;;;;67.95;24.17;;;7.10;83.70;;;;;;4996434;28;20048;-87
2023/12/09 02:14:29;;;;;;;61.65;22.98;;;7.10;83.60;;;;;;5010081;28;20077;-87
2023/12/09 02:17:19;;;;;;;77.38;25.55;;;7.10;83.60;;;;;;5009833;28;20092;-87
2023/12/09 02:20:05;;;;;;;63.45;25.88;;;7.10;83.60;;;;;;5010896;28;20064;-86
2023/12/09 02:22:49;;;;;;;66.35;23.92;;;7.10;83.50;;;;;;4996451;28;20442;-87
2023/12/09 02:25:36;;;;;;;66.00;23.73;;;7.10;83.50;;;;;;5014898;28;20096;-87
2023/12/09 02:28:31;;;;;;;72.57;23.75;;;7.10;83.50;;;;;;5014637;28;20482;-87
2023/12/09 02:31:23;;;;;;;60.38;22.15;;;7.10;83.50;;;;;;5013147;28;20269;-87
2023/12/09 02:34:08;;;;;;;63.20;23.15;;;7.10;83.50;;;;;;5014197;28;20044;-87
2023/12/09 02:36:53;;;;;;;67.35;23.88;;;7.10;83.50;;;;;;5013705;28;20100;-87
2023/12/09 02:39:38;;;;;;;65.80;23.33;;;7.10;83.40;;;;;;5014466;28;20414;-87
2023/12/09 02:42:23;;;;;;;73.95;24.48;;;7.10;83.40;;;;;;5014600;28;20452;-87
2023/12/09 02:45:07;;;;;;;60.97;22.08;;;7.10;83.40;;;;;;5013922;28;20180;-88
2023/12/09 02:47:51;;;;;;;66.85;23.13;;;7.10;83.40;;;;;;5006115;28;20040;-87
2023/12/09 02:50:36;;;;;;;62.17;23.27;;;7.10;83.50;;;;;;4998198;28;20113;-88
2023/12/09 02:53:20;;;;;;;69.00;23.85;;;7.10;83.40;;;;;;5005008;28;20329;-87
2023/12/09 02:56:05;;;;;;;79.93;26.52;;;7.10;83.40;;;;;;4998930;28;20121;-87
2023/12/09 02:58:49;;;;;;;68.78;23.40;;;7.10;83.40;;;;;;5013016;28;20080;-87
2023/12/09 03:01:34;;;;;;;59.97;22.95;;;7.10;83.50;;;;;;5013157;28;20418;-87
2023/12/09 03:04:19;;;;;;;64.28;22.88;;;7.10;83.40;;;;;;5002679;28;20410;-86
2023/12/09 03:07:03;;;;;;;77.60;25.30;;;7.10;83.50;;;;;;5011001;28;20401;-86
2023/12/09 03:09:47;;;;;;;61.53;22.50;;;7.00;83.40;;;;;;5014068;28;20045;-87
2023/12/09 03:12:31;;;;;;;63.83;22.95;;;7.00;83.40;;;;;;5013106;28;20469;-87
2023/12/09 03:15:15;;;;;;;71.10;23.10;;;7.10;83.30;;;;;;5013305;28;20045;-87
2023/12/09 03:17:59;;;;;;;59.22;20.95;;;7.00;83.30;;;;;;5013956;28;20049;-87
2023/12/09 03:20:44;;;;;;;53.03;21.33;;;7.00;83.30;;;;;;5007979;28;20130;-88
2023/12/09 03:23:28;;;;;;;50.60;20.63;;;7.00;83.30;;;;;;5006455;28;20501;-87
2023/12/09 03:26:19;;;;;;;64.55;22.88;;;7.00;83.20;;;;;;5013302;28;20165;-88
2023/12/09 03:29:03;;;;;;;70.35;23.55;;;6.90;83.20;;;;;;5013447;28;20032;-86
2023/12/09 03:31:48;;;;;;;53.42;19.42;;;6.90;83.30;;;;;;5012736;28;20446;-87
2023/12/09 03:34:32;;;;;;;64.47;20.63;;;6.90;83.20;;;;;;5013146;28;20586;-87
2023/12/09 03:37:16;;;;;;;46.95;21.13;;;6.90;83.20;;;;;;5012873;28;20060;-88
2023/12/09 03:40:00;;;;;;;61.35;20.77;;;6.90;83.10;;;;;;4998795;28;20127;-87
2023/12/09 03:42:45;;;;;;;51.88;19.13;;;6.90;83.10;;;;;;5012365;28;20045;-87
2023/12/09 03:45:29;;;;;;;61.35;19.55;;;6.90;83.10;;;;;;5013011;28;20041;-87
2023/12/09 03:48:14;;;;;;;54.00;19.95;;;6.90;83.10;;;;;;5011855;28;20405;-88
2023/12/09 03:50:58;;;;;;;49.17;18.23;;;6.90;83.10;;;;;;4998220;28;20100;-88
2023/12/09 03:53:42;;;;;;;54.97;18.95;;;6.90;83.10;;;;;;5012238;28;20053;-87
2023/12/09 03:56:26;;;;;;;63.05;21.98;;;6.90;83.10;;;;;;4997736;28;20044;-87
2023/12/09 03:59:11;;;;;;;61.25;17.90;;;6.90;83.00;;;;;;5012435;28;20041;-87
2023/12/09 04:01:55;;;;;;;55.67;18.67;;;6.90;83.00;;;;;;5012087;28;20057;-88
2023/12/09 04:04:40;;;;;;;47.05;18.02;;;6.90;83.00;;;;;;5012929;28;20432;-87
2023/12/09 04:07:24;;;;;;;47.75;18.20;;;6.90;82.90;;;;;;5012514;28;20104;-87
2023/12/09 04:10:11;;;;;;;43.72;16.27;;;6.90;82.90;;;;;;5012799;28;20092;-86
2023/12/09 04:12:55;;;;;;;57.88;18.73;;;6.90;82.90;;;;;;5012796;28;20509;-87
2023/12/09 04:15:40;;;;;;;47.38;18.17;;;6.90;82.80;;;;;;4992398;28;20092;-88
2023/12/09 04:18:24;;;;;;;53.65;17.02;;;6.90;82.90;;;;;;5008814;28;20049;-87
2023/12/09 04:21:08;;;;;;;48.97;17.13;;;6.90;82.90;;;;;;5011803;28;20093;-87
2023/12/09 04:23:52;;;;;;;41.42;15.73;;;6.90;82.80;;;;;;5011561;28;20430;-86
2023/12/09 04:26:37;;;;;;;44.78;16.65;;;6.90;82.80;;;;;;5011397;28;20048;-87
2023/12/09 04:29:21;;;;;;;46.78;16.40;;;6.90;82.80;;;;;;5011326;28;20044;-87
2023/12/09 04:32:05;;;;;;;40.85;16.83;;;6.80;82.70;;;;;;5011252;28;20084;-87
2023/12/09 04:34:49;;;;;;;48.45;16.30;;;6.90;82.60;;;;;;5012389;28;20410;-87
2023/12/09 04:37:34;;;;;;;47.95;16.30;;;6.90;82.60;;;;;;5011987;28;20619;-87
2023/12/09 04:40:18;;;;;;;49.45;15.90;;;6.90;82.70;;;;;;5011818;28;20065;-87
2023/12/09 04:43:03;;;;;;;41.30;15.18;;;6.80;82.60;;;;;;5012170;28;20076;-86
2023/12/09 04:45:47;;;;;;;57.55;15.20;;;6.90;82.60;;;;;;5011403;28;20036;-87
2023/12/09 04:48:31;;;;;;;47.08;15.73;;;6.90;82.50;;;;;;5011863;28;20121;-87
2023/12/09 04:51:17;;;;;;;46.17;14.02;;;6.80;82.60;;;;;;4997046;28;20045;-86
2023/12/09 04:54:01;;;;;;;39.63;13.98;;;6.80;82.60;;;;;;5011000;28;20446;-88
2023/12/09 04:56:45;;;;;;;61.40;17.70;;;6.80;82.60;;;;;;4997762;28;20041;-87
2023/12/09 04:59:30;;;;;;;39.80;14.73;;;6.80;82.50;;;;;;4996716;28;20139;-88
2023/12/09 05:02:14;;;;;;;46.22;15.05;;;6.80;82.60;;;;;;5011783;28;20057;-87
2023/12/09 05:04:59;;;;;;;52.40;15.32;;;6.90;82.60;;;;;;5010914;28;20041;-88
2023/12/09 05:07:43;;;;;;;43.13;14.75;;;6.80;82.60;;;;;;5012041;28;20402;-87
2023/12/09 05:10:27;;;;;;;43.75;14.73;;;6.80;82.60;;;;;;5011445;28;20045;-87
2023/12/09 05:13:12;;;;;;;39.28;14.25;;;6.80;82.60;;;;;;5010666;28;20065;-88
2023/12/09 05:15:56;;;;;;;40.65;13.90;;;6.80;82.60;;;;;;5011897;28;20077;-88
2023/12/09 05:18:40;;;;;;;38.63;14.57;;;6.80;82.60;;;;;;5010143;28;20085;-88
2023/12/09 05:21:26;;;;;;;37.60;13.88;;;6.80;82.60;;;;;;5010330;28;20069;-88
2023/12/09 05:24:11;;;;;;;53.50;15.82;;;6.80;82.60;;;;;;4999178;28;20053;-88
2023/12/09 05:26:57;;;;;;;44.35;14.35;;;6.80;82.70;;;;;;5010416;28;20402;-88
2023/12/09 05:29:43;;;;;;;55.72;14.75;;;6.80;82.60;;;;;;5011146;28;20048;-87
2023/12/09 05:32:27;;;;;;;47.47;14.00;;;6.80;82.70;;;;;;5011194;28;20087;-87
2023/12/09 05:35:11;;;;;;;47.90;13.73;;;6.80;82.80;;;;;;5011410;28;20127;-87
2023/12/09 05:37:55;;;;;;;48.33;15.05;;;6.80;82.70;;;;;;5010674;28;20072;-87
2023/12/09 05:40:40;;;;;;;44.88;12.93;;;6.80;82.70;;;;;;5010065;28;20520;-88
2023/12/09 05:43:23;;;;;;;58.13;15.30;;;6.80;82.70;;;;;;5009955;28;20069;-87
2023/12/09 05:46:08;;;;;;;44.03;14.60;;;6.80;82.70;;;;;;5010591;28;20041;-88
2023/12/09 05:48:52;;;;;;;40.70;14.82;;;6.80;82.70;;;;;;5010431;28;20052;-88
2023/12/09 05:51:36;;;;;;;57.28;15.95;;;6.80;82.70;;;;;;5011053;28;20402;-87
2023/12/09 05:54:20;;;;;;;49.83;15.27;;;6.80;82.60;;;;;;5009761;28;20069;-88
2023/12/09 05:57:04;;;;;;;53.45;13.70;;;6.90;82.60;;;;;;5000241;28;20069;-88
2023/12/09 05:59:48;;;;;;;43.40;14.02;;;6.90;82.60;;;;;;5000355;28;20420;-87
2023/12/09 06:02:32;;;;;;;47.97;14.93;;;6.80;82.60;;;;;;5015178;28;20112;-87
2023/12/09 06:05:17;;;;;;;44.13;12.77;;;6.80;82.60;;;;;;5014597;28;20049;-88
2023/12/09 06:08:01;;;;;;;44.95;13.20;;;6.80;82.50;;;;;;5015283;28;20410;-88
2023/12/09 06:10:45;;;;;;;41.75;13.50;;;6.80;82.50;;;;;;5000155;28;20103;-87
2023/12/09 06:13:31;;;;;;;47.60;14.07;;;6.80;82.50;;;;;;4995805;28;20108;-87
2023/12/09 06:16:19;;;;;;;41.13;13.88;;;6.80;82.60;;;;;;5008342;28;20069;-87
2023/12/09 06:19:03;;;;;;;41.78;15.55;;;6.80;82.50;;;;;;5014137;28;20037;-87
2023/12/09 06:21:48;;;;;;;51.88;13.90;;;6.80;82.50;;;;;;4982698;28;20108;-87
2023/12/09 06:24:32;;;;;;;46.70;16.20;;;6.80;82.50;;;;;;5014619;28;20049;-87
2023/12/09 06:27:16;;;;;;;44.75;14.82;;;6.70;82.40;;;;;;5013828;28;20061;-87
2023/12/09 06:30:01;;;;;;;55.97;15.70;;;6.70;82.50;;;;;;5015010;28;20142;-86
2023/12/09 06:32:45;;;;;;;38.80;15.80;;;6.70;82.40;;;;;;5013494;28;20386;-88
2023/12/09 06:35:29;;;;;;;42.33;16.25;;;6.60;82.50;;;;;;5013234;28;20052;-86
2023/12/09 06:38:13;;;;;;;51.95;15.27;;;6.70;82.40;;;;;;5014879;28;20053;-87
2023/12/09 06:40:58;;;;;;;49.47;17.73;;;6.60;82.50;;;;;;5016080;28;20044;-88
2023/12/09 06:43:42;;;;;;;43.95;14.63;;;6.60;82.30;;;;;;5000315;28;20061;-86
2023/12/09 06:46:26;;;;;;;40.38;14.98;;;6.60;82.40;;;;;;5015497;28;20081;-87
2023/12/09 06:49:11;;;;;;;39.80;15.23;;;6.50;82.40;;;;;;4986104;28;20052;-87
2023/12/09 06:51:55;;;;;;;40.75;15.27;;;6.50;82.30;;;;;;5013560;28;20497;-87
2023/12/09 06:54:39;;;;;;;44.72;14.85;;;6.50;82.30;;;;;;5011435;28;20040;-87
2023/12/09 06:57:23;;;;;;;51.17;13.85;;;6.50;82.20;;;;;;5008368;28;20041;-87
2023/12/09 07:00:08;;;;;;;51.70;14.35;;;6.50;82.20;;;;;;5016798;28;20497;-87
2023/12/09 07:02:52;;;;;;;41.78;14.85;;;6.40;82.30;;;;;;5000429;28;20847;-87
2023/12/09 07:05:37;;;;;;;43.42;13.35;;;6.40;82.30;;;;;;5013557;28;20045;-87
2023/12/09 07:08:22;;;;;;;46.13;13.82;;;6.40;82.20;;;;;;5012814;28;20045;-86
2023/12/09 07:11:06;;;;;;;45.08;13.98;;;6.40;82.20;;;;;;4999069;28;20100;-87
2023/12/09 07:13:50;;;;;;;36.70;13.90;;;6.40;82.10;;;;;;4998697;28;20505;-87
2023/12/09 07:16:37;;;;;;;51.03;13.75;;;6.30;82.20;;;;;;5012436;28;20065;-86
2023/12/09 07:19:21;;;;;;;35.78;13.82;;;6.30;82.20;;;;;;5013993;28;20037;-87
2023/12/09 07:22:05;;;;;;;51.88;13.98;;;6.30;82.20;;;;;;5013734;28;20092;-86
2023/12/09 07:24:49;;;;;;;45.58;14.45;;;6.30;82.30;;;;;;5013523;28;20048;-87
2023/12/09 07:27:33;;;;;;;43.03;12.73;;;6.30;82.20;;;;;;5013176;28;20041;-86
2023/12/09 07:30:18;;;;;;;32.30;12.88;;;6.30;82.20;;;;;;5012502;28;20045;-87
2023/12/09 07:33:02;;;;;;;40.70;12.75;;;6.30;82.10;;;;;;5013392;28;20501;-87
2023/12/09 07:35:47;;;;;;;46.53;13.63;;;6.30;82.10;;;;;;5011753;28;20052;-86
2023/12/09 07:38:32;;;;;;;45.72;12.82;;;6.30;82.20;;;;;;5013555;28;20552;-86
2023/12/09 07:41:16;;;;;;;35.90;12.90;;;6.30;82.30;;;;;;5012718;28;20397;-86
2023/12/09 07:44:01;;;;;;;38.08;13.32;;;6.20;82.20;;;;;;5013097;28;20131;-87
2023/12/09 07:46:48;;;;;;;54.25;14.05;;;6.30;82.30;;;;;;4998347;28;20060;-86
2023/12/09 07:49:33;;;;;;;41.75;14.02;;;6.20;82.20;;;;;;5013332;28;20839;-86
2023/12/09 07:52:17;;;;;;;36.80;11.82;;;6.30;82.20;;;;;;5012369;28;20087;-87
2023/12/09 07:55:01;;;;;;;40.03;12.38;;;6.30;82.10;;;;;;5001862;28;20048;-87
2023/12/09 07:57:45;;;;;;;33.17;11.68;;;6.30;82.20;;;;;;5007450;28;20173;-86
2023/12/09 08:00:31;;;;;;;30.27;10.95;;;6.30;82.20;;;;;;5012000;28;20040;-86
2023/12/09 08:03:15;;;;;;;33.15;11.60;;;6.20;82.10;;;;;;5011869;28;20045;-87
2023/12/09 08:05:59;;;;;;;41.30;12.32;;;6.30;82.00;;;;;;5011614;28;20057;-85
2023/12/09 08:08:43;;;;;;;33.67;10.77;;;6.30;82.00;;;;;;5012491;28;20092;-86
2023/12/09 08:11:27;;;;;;;35.03;10.73;;;6.20;81.90;;;;;;5012715;28;20536;-86
2023/12/09 08:14:11;;;;;;;38.63;12.55;;;6.20;81.90;;;;;;5012848;28;20065;-86
2023/12/09 08:16:55;;;;;;;33.45;11.00;;;6.30;81.90;;;;;;5011172;28;20045;-86
2023/12/09 08:19:40;;;;;;;30.70;9.43;;;6.30;81.80;;;;;;5012928;28;20077;-85
2023/12/09 08:22:24;;;;;;;33.55;8.65;;;6.30;81.80;;;;;;5012834;28;20041;-85
2023/12/09 08:25:09;;;;;;;33.20;9.85;;;6.30;81.80;;;;;;5011664;28;20049;-85
2023/12/09 08:27:53;;;;;;;31.77;9.38;;;6.30;81.80;;;;;;5012217;28;20088;-86
2023/12/09 08:30:39;;;;;;;29.98;9.38;;;6.30;81.80;;;;;;5011543;28;20049;-86
2023/12/09 08:33:23;;;;;;;27.77;9.07;;;6.30;81.80;;;;;;5011577;28;20072;-86
2023/12/09 08:36:08;;;;;;;27.52;9.05;;;6.30;81.60;;;;;;4997568;28;20045;-85
2023/12/09 08:38:52;;;;;;;27.30;8.10;;;6.30;81.60;;;;;;4997003;28;20076;-85
2023/12/09 08:41:37;;;;;;;27.88;8.48;;;6.30;81.60;;;;;;5012470;28;20096;-85
2023/12/09 08:44:21;;;;;;;24.58;8.70;;;6.30;81.50;;;;;;5011493;28;20076;-85
2023/12/09 08:47:05;;;;;;;23.88;6.72;;;6.30;81.40;;;;;;5011560;28;20092;-85
2023/12/09 08:49:50;;;;;;;28.80;7.50;;;6.30;81.30;;;;;;5010879;28;20056;-85
2023/12/09 08:52:34;;;;;;;27.35;7.32;;;6.30;81.40;;;;;;5012110;28;20041;-85
2023/12/09 08:55:19;;;;;;;23.92;6.60;;;6.30;81.20;;;;;;5002704;28;20096;-85
2023/12/09 08:58:03;;;;;;;22.05;6.70;;;6.30;81.20;;;;;;5008693;28;20037;-85
2023/12/09 09:00:48;;;;;;;24.75;6.55;;;6.30;81.20;;;;;;5010423;28;20108;-85
2023/12/09 09:03:32;;;;;;;28.50;6.55;;;6.30;81.00;;;;;;4998370;28;20096;-85
2023/12/09 09:06:16;;;;;;;23.90;6.68;;;6.30;81.00;;;;;;5010829;28;20069;-85
2023/12/09 09:09:00;;;;;;;34.30;6.60;;;6.30;81.00;;;;;;5011567;28;20493;-85
2023/12/09 09:11:44;;;;;;;18.85;6.07;;;6.30;80.90;;;;;;5011794;28;20044;-85
2023/12/09 09:14:28;;;;;;;37.58;6.78;;;6.30;80.90;;;;;;5011826;28;20502;-85
2023/12/09 09:17:13;;;;;;;30.38;7.88;;;6.30;81.10;;;;;;5011626;28;20473;-85
2023/12/09 09:19:57;;;;;;;23.38;6.22;;;6.30;80.90;;;;;;5011205;28;20053;-85
2023/12/09 09:22:41;;;;;;;24.00;6.75;;;6.40;80.90;;;;;;5010732;28;20060;-85
2023/12/09 09:25:26;;;;;;;24.38;6.38;;;6.40;80.70;;;;;;5011681;28;20550;-84
2023/12/09 09:28:10;;;;;;;21.85;5.22;;;6.40;80.70;;;;;;5011348;28;20039;-85
2023/12/09 09:30:54;;;;;;;24.88;6.32;;;6.40;80.40;;;;;;5010027;28;20041;-84
2023/12/09 09:33:41;;;;;;;26.38;7.63;;;6.50;80.50;;;;;;4996257;28;20057;-85
2023/12/09 09:36:25;;;;;;;24.90;5.57;;;6.50;80.60;;;;;;5011658;28;20088;-85
2023/12/09 09:39:11;;;;;;;24.80;5.57;;;6.50;80.50;;;;;;5009702;28;20153;-85
2023/12/09 09:42:23;;;;;;;25.27;5.43;;;6.50;80.40;;;;;;5009912;28;20119;-85
2023/12/09 09:45:10;;;;;;;19.77;5.80;;;6.50;80.20;;;;;;5009517;28;20497;-85
2023/12/09 09:47:55;;;;;;;22.95;5.18;;;6.50;80.00;;;;;;5010986;28;20040;-84
2023/12/09 09:50:44;;;;;;;18.00;4.57;;;6.50;80.30;;;;;;5011325;28;20061;-84
2023/12/09 09:53:35;;;;;;;20.85;4.80;;;6.50;80.40;;;;;;5011431;28;20049;-85
2023/12/09 09:56:21;;;;;;;18.08;4.22;;;6.50;80.30;;;;;;4997559;28;20092;-84
2023/12/09 09:59:06;;;;;;;27.90;6.18;;;6.50;80.00;;;;;;5009794;28;20454;-84
2023/12/09 10:01:50;;;;;;;20.60;5.03;;;6.50;80.00;;;;;;5010357;28;20069;-85
2023/12/09 10:04:34;;;;;;;16.02;4.03;;;6.50;79.90;;;;;;5010152;28;20459;-84
2023/12/09 10:07:21;;;;;;;16.70;4.03;;;6.50;80.00;;;;;;5009924;28;20552;-85
2023/12/09 10:10:06;;;;;;;20.95;5.22;;;6.50;80.00;;;;;;5010747;28;20037;-84
2023/12/09 10:12:51;;;;;;;17.65;4.05;;;6.50;79.80;;;;;;5011362;28;20053;-84
2023/12/09 10:15:35;;;;;;;16.58;4.00;;;6.50;79.80;;;;;;5011322;28;20095;-84
2023/12/09 10:18:24;;;;;;;20.40;4.00;;;6.50;79.70;;;;;;5009614;28;20100;-84
2023/12/09 10:21:08;;;;;;;12.52;3.33;;;6.60;79.60;;;;;;5009728;28;20041;-84
2023/12/09 10:23:52;;;;;;;15.85;3.88;;;6.60;79.30;;;;;;5011012;28;20449;-84
2023/12/09 10:26:37;;;;;;;16.48;4.10;;;6.60;79.50;;;;;;5011103;28;20076;-84
2023/12/09 10:29:22;;;;;;;21.05;4.57;;;6.70;79.40;;;;;;4998779;28;20105;-84
2023/12/09 10:32:06;;;;;;;15.77;4.20;;;6.70;79.30;;;;;;5009525;28;20041;-84
2023/12/09 10:34:51;;;;;;;15.65;3.90;;;6.70;79.10;;;;;;4996311;28;20095;-84
2023/12/09 10:37:35;;;;;;;12.18;3.33;;;6.70;79.20;;;;;;4996630;28;20501;-84
2023/12/09 10:40:19;;;;;;;9.95;3.38;;;6.80;79.10;;;;;;5009341;28;20100;-84
2023/12/09 10:43:03;;;;;;;11.35;3.78;;;6.80;79.20;;;;;;5010419;28;20133;-84
2023/12/09 10:45:47;;;;;;;21.75;3.72;;;6.80;79.20;;;;;;5013675;28;20049;-84
2023/12/09 10:48:31;;;;;;;19.10;3.55;;;6.80;78.90;;;;;;5014535;28;20084;-83
2023/12/09 10:51:16;;;;;;;11.85;3.70;;;6.80;78.60;;;;;;5012934;28;20505;-83
2023/12/09 10:54:00;;;;;;;14.65;3.80;;;6.90;78.60;;;;;;5014187;28;20173;-83
2023/12/09 10:56:44;;;;;;;14.45;3.75;;;6.90;78.70;;;;;;5000844;28;20450;-84
2023/12/09 10:59:32;;;;;;;19.40;3.65;;;6.90;78.60;;;;;;5014153;28;20502;-83
2023/12/09 11:02:19;;;;;;;13.40;2.97;;;7.00;78.20;;;;;;5013833;28;20096;-83
2023/12/09 11:05:05;;;;;;;14.75;3.53;;;7.00;77.70;;;;;;5012768;28;20497;-84
2023/12/09 11:07:50;;;;;;;10.85;3.15;;;7.00;78.40;;;;;;5014263;28;20048;-84
2023/12/09 11:10:35;;;;;;;15.02;3.30;;;7.00;77.80;;;;;;5014159;28;20531;-83
2023/12/09 11:13:19;;;;;;;10.52;3.05;;;7.10;78.20;;;;;;5013345;28;20420;-83
2023/12/09 11:16:18;;;;;;;9.57;3.42;;;7.10;78.00;;;;;;5012882;28;20076;-84
2023/12/09 11:19:04;;;;;;;12.15;3.30;;;7.10;77.80;;;;;;5013985;28;20076;-82
2023/12/09 11:21:49;;;;;;;10.80;3.10;;;7.10;77.60;;;;;;5012820;28;20046;-83
2023/12/09 11:24:34;;;;;;;9.57;2.88;;;7.10;77.50;;;;;;4999035;28;20060;-83
2023/12/09 11:27:20;;;;;;;10.55;2.83;;;7.10;77.50;;;;;;5013149;28;20084;-83
2023/12/09 11:30:05;;;;;;;10.57;3.20;;;7.10;77.40;;;;;;5013546;28;20398;-83
2023/12/09 11:32:49;;;;;;;12.85;4.18;;;7.10;77.80;;;;;;5013588;28;20159;-82
2023/12/09 11:35:37;;;;;;;18.50;4.10;;;7.10;77.50;;;;;;5012524;28;20062;-83
2023/12/09 11:38:22;;;;;;;15.40;3.55;;;7.10;77.60;;;;;;5012096;28;20053;-83
2023/12/09 11:41:08;;;;;;;14.43;3.20;;;7.10;77.90;;;;;;5013438;28;20095;-83
2023/12/09 11:43:53;;;;;;;9.90;3.05;;;7.20;77.10;;;;;;5013363;28;20133;-82
2023/12/09 11:46:38;;;;;;;9.85;3.78;;;7.20;76.70;;;;;;5012418;28;20048;-83
2023/12/09 11:49:25;;;;;;;12.10;3.35;;;7.20;77.40;;;;;;5012751;28;20048;-83
2023/12/09 11:52:09;;;;;;;12.15;3.45;;;7.20;77.40;;;;;;5013048;28;20449;-84
2023/12/09 11:55:00;;;;;;;10.88;3.38;;;7.30;77.40;;;;;;5006834;28;20137;-82
2023/12/09 11:57:44;;;;;;;13.95;3.38;;;7.30;76.90;;;;;;5006610;28;20037;-82
2023/12/09 12:00:29;;;;;;;14.75;3.58;;;7.30;76.80;;;;;;5011516;28;20866;-82
2023/12/09 12:03:13;;;;;;;9.55;3.33;;;7.30;76.90;;;;;;4997546;28;20414;-82
2023/12/09 12:05:58;;;;;;;12.68;2.78;;;7.30;77.10;;;;;;5012138;28;20449;-84
2023/12/09 12:08:44;;;;;;;10.10;2.65;;;7.30;76.90;;;;;;5013042;28;20033;-82
2023/12/09 12:11:29;;;;;;;11.93;3.13;;;7.30;77.10;;;;;;5012189;28;20040;-82
2023/12/09 12:14:13;;;;;;;18.30;3.30;;;7.30;77.00;;;;;;5012578;28;20414;-84
2023/12/09 12:17:01;;;;;;;10.75;2.78;;;7.30;77.10;;;;;;5012759;28;20536;-82
2023/12/09 12:19:46;;;;;;;12.93;3.40;;;7.30;76.80;;;;;;5012511;28;20041;-82
2023/12/09 12:22:30;;;;;;;12.65;2.72;;;7.30;76.40;;;;;;5012294;28;20052;-82
2023/12/09 12:25:15;;;;;;;13.73;3.17;;;7.30;77.20;;;;;;5012220;28;20493;-83
2023/12/09 12:27:59;;;;;;;14.43;3.88;;;7.30;76.70;;;;;;5011661;28;20041;-82
2023/12/09 12:30:44;;;;;;;15.20;3.17;;;7.30;76.80;;;;;;5011617;28;20123;-83
2023/12/09 12:33:30;;;;;;;10.68;2.83;;;7.30;76.70;;;;;;5011896;28;20052;-82
2023/12/09 12:36:14;;;;;;;8.57;2.85;;;7.30;77.00;;;;;;5012474;28;20045;-83
2023/12/09 12:38:58;;;;;;;8.98;2.63;;;7.30;76.90;;;;;;5012302;28;20065;-83
2023/12/09 12:41:43;;;;;;;9.48;3.13;;;7.30;77.00;;;;;;5012527;28;20045;-82
2023/12/09 12:44:27;;;;;;;9.40;3.05;;;7.30;76.40;;;;;;5010922;28;20049;-82
2023/12/09 12:47:11;;;;;;;10.15;3.38;;;7.30;76.70;;;;;;5011113;28;20549;-82
2023/12/09 12:49:55;;;;;;;8.80;3.28;;;7.40;77.00;;;;;;5012321;28;20041;-82
2023/12/09 12:52:39;;;;;;;9.55;2.70;;;7.30;77.10;;;;;;5011508;28;20040;-82
2023/12/09 12:55:24;;;;;;;7.50;2.70;;;7.30;76.90;;;;;;5002856;28;20103;-82
2023/12/09 12:58:08;;;;;;;9.13;3.85;;;7.30;76.70;;;;;;4994962;28;20065;-82
2023/12/09 13:00:54;;;;;;;7.68;2.67;;;7.30;76.70;;;;;;5010946;28;20084;-82
2023/12/09 13:03:38;;;;;;;16.17;3.30;;;7.30;76.70;;;;;;5011534;28;20036;-82
2023/12/09 13:06:23;;;;;;;10.73;3.08;;;7.30;76.90;;;;;;5011041;28;20049;-83
2023/12/09 13:09:08;;;;;;;10.13;2.13;;;7.30;76.10;;;;;;5010992;28;20064;-82
2023/12/09 13:11:52;;;;;;;11.45;2.55;;;7.30;76.40;;;;;;5010709;28;20040;-83
2023/12/09 13:14:37;;;;;;;12.35;3.03;;;7.30;76.10;;;;;;5011393;28;20056;-82
2023/12/09 13:17:21;;;;;;;10.55;2.25;;;7.30;76.00;;;;;;5010820;28;20092;-84
2023/12/09 13:20:06;;;;;;;9.35;2.63;;;7.30;76.10;;;;;;5011684;28;20100;-82
2023/12/09 13:22:51;;;;;;;11.20;2.95;;;7.30;76.30;;;;;;5011829;28;20116;-82
2023/12/09 13:25:35;;;;;;;10.43;2.20;;;7.30;76.40;;;;;;4996411;28;20040;-82
2023/12/09 13:28:19;;;;;;;12.02;2.58;;;7.30;76.00;;;;;;5011565;28;20049;-83
2023/12/09 13:31:04;;;;;;;8.07;2.55;;;7.30;76.20;;;;;;5010879;28;20049;-82
2023/12/09 13:33:49;;;;;;;15.55;2.40;;;7.30;76.60;;;;;;5011456;28;20045;-82
2023/12/09 13:36:34;;;;;;;14.93;2.58;;;7.30;76.50;;;;;;5010115;28;20540;-82
2023/12/09 13:39:19;;;;;;;12.10;2.95;;;7.30;75.90;;;;;;5011597;28;20059;-82
2023/12/09 13:42:03;;;;;;;9.32;2.58;;;7.30;76.00;;;;;;5010463;28;20129;-82
2023/12/09 13:44:48;;;;;;;9.10;2.20;;;7.30;76.30;;;;;;5010180;28;20053;-82
2023/12/09 13:47:32;;;;;;;9.52;2.47;;;7.30;76.80;;;;;;5009870;28;20049;-82
2023/12/09 13:50:16;;;;;;;11.00;2.50;;;7.20;77.10;;;;;;5011413;28;20052;-82
2023/12/09 13:53:02;;;;;;;14.07;2.50;;;;;;;;;;5011425;28;20037;-81
2023/12/09 13:55:46;;;;;;;12.18;2.63;;;;;;;;;;4998820;28;20049;-82
2023/12/09 13:58:31;;;;;;;10.52;3.50;;;;;;;;;;4997983;28;20088;-81
2023/12/09 14:01:16;;;;;;;8.63;2.50;;;;;;;;;;5011234;28;20541;-81
2023/12/09 14:04:01;;;;;;;10.00;3.30;;;;;;;;;;5011257;28;20088;-81
2023/12/09 14:06:46;;;;;;;17.67;3.00;;;;;;;;;;5010755;28;20144;-82
2023/12/09 14:09:30;;;;;;;13.40;3.25;;;;;;;;;;5010895;28;20060;-82
2023/12/09 14:12:15;;;;;;;12.52;3.72;;;;;;;;;;5010268;28;20121;-82
2023/12/09 14:14:59;;;;;;;11.38;3.97;;;;;;;;;;5011107;28;20057;-82